Time;durP1;ratioP1;P1;durP2;ratioP2;P2;SDS_P1;SDS_P2;PMS_P1;PMS_P2;Temp;Humidity;BMP_temperature;BMP_pressure;BME280_temperature;BME280_humidity;BME280_pressure;Samples;Min_cycle;Max_cycle;Signal;HPM_P1;HPM_P2
2022/05/18 00:00:35;;;;;;;7.00;4.60;;;17.50;99.90;;;;;;4970659;28;20180;-67
2022/05/18 00:03:06;;;;;;;4.30;3.90;;;17.50;99.90;;;;;;4969425;28;20582;-67
2022/05/18 00:05:33;;;;;;;6.73;4.80;;;17.40;99.90;;;;;;4967852;28;20525;-67
2022/05/18 00:07:58;;;;;;;5.30;4.80;;;17.40;99.90;;;;;;4973130;28;20514;-67
2022/05/18 00:10:24;;;;;;;5.30;3.90;;;17.40;99.90;;;;;;4970355;28;20514;-67
2022/05/18 00:12:50;;;;;;;4.57;4.20;;;17.40;99.90;;;;;;4971628;28;20210;-67
2022/05/18 00:15:19;;;;;;;5.77;5.37;;;17.30;99.90;;;;;;4972666;28;20209;-67
2022/05/18 00:17:45;;;;;;;5.03;4.60;;;17.30;99.90;;;;;;4972037;28;20542;-67
2022/05/18 00:20:12;;;;;;;4.53;4.23;;;17.30;99.90;;;;;;4969538;28;20443;-67
2022/05/18 00:23:04;;;;;;;5.33;4.80;;;17.30;99.90;;;;;;4967340;28;20219;-67
2022/05/18 00:25:36;;;;;;;5.50;4.90;;;17.20;99.90;;;;;;4968629;28;21012;-67
2022/05/18 00:28:02;;;;;;;5.30;4.90;;;17.20;99.90;;;;;;4970305;28;20439;-67
2022/05/18 00:30:29;;;;;;;6.23;4.77;;;17.20;99.90;;;;;;4971456;28;20435;-67
2022/05/18 00:32:55;;;;;;;5.83;5.33;;;17.20;99.90;;;;;;4971749;28;21086;-67
2022/05/18 00:35:22;;;;;;;5.97;5.40;;;17.10;99.90;;;;;;4972680;28;20463;-67
2022/05/18 00:37:48;;;;;;;5.57;5.07;;;17.10;99.90;;;;;;4970548;28;20188;-67
2022/05/18 00:40:17;;;;;;;5.67;5.27;;;17.10;99.90;;;;;;4972005;28;20436;-67
2022/05/18 00:42:42;;;;;;;5.07;4.77;;;17.00;99.90;;;;;;4969725;28;20196;-67
2022/05/18 00:45:09;;;;;;;5.20;4.80;;;17.00;99.90;;;;;;4970391;28;20471;-67
2022/05/18 00:47:35;;;;;;;5.77;5.27;;;17.00;99.90;;;;;;4971546;28;20214;-67
2022/05/18 00:50:07;;;;;;;5.00;4.60;;;16.90;99.90;;;;;;4969408;28;20474;-67
2022/05/18 00:52:38;;;;;;;5.80;5.30;;;16.90;99.90;;;;;;4971724;28;20685;-67
2022/05/18 00:55:08;;;;;;;5.47;4.97;;;16.90;99.90;;;;;;4972856;28;20525;-67
2022/05/18 00:57:44;;;;;;;7.00;6.07;;;16.80;99.90;;;;;;4968102;28;20455;-67
2022/05/18 01:00:13;;;;;;;6.63;5.90;;;16.70;99.90;;;;;;4963199;28;20451;-67
2022/05/18 01:02:42;;;;;;;6.00;5.50;;;16.60;99.90;;;;;;4969144;28;20463;-67
2022/05/18 01:05:10;;;;;;;6.30;5.00;;;16.60;99.90;;;;;;4970552;28;20468;-67
2022/05/18 01:07:47;;;;;;;5.83;4.87;;;16.50;99.90;;;;;;4972537;28;20436;-67
2022/05/18 01:10:13;;;;;;;5.80;4.60;;;16.50;99.90;;;;;;4971090;28;20489;-67
2022/05/18 01:12:39;;;;;;;7.70;5.03;;;16.50;99.90;;;;;;4968068;28;20443;-67
2022/05/18 01:15:10;;;;;;;13.30;6.37;;;16.40;99.90;;;;;;4971395;28;20926;-67
2022/05/18 01:17:39;;;;;;;7.10;5.90;;;16.40;99.90;;;;;;4971205;28;20176;-67
2022/05/18 01:20:11;;;;;;;7.70;5.80;;;16.40;99.90;;;;;;4971337;28;20435;-67
2022/05/18 01:22:59;;;;;;;6.20;5.57;;;16.40;99.90;;;;;;4970681;28;20463;-67
2022/05/18 01:25:47;;;;;;;5.90;5.33;;;16.30;99.90;;;;;;4970401;28;20781;-68
2022/05/18 01:28:13;;;;;;;6.70;6.10;;;16.30;99.90;;;;;;4968639;28;20449;-67
2022/05/18 01:30:45;;;;;;;7.50;6.80;;;16.30;99.90;;;;;;4969915;28;20478;-67
2022/05/18 01:33:11;;;;;;;6.17;5.77;;;16.30;99.90;;;;;;4970984;28;20438;-67
2022/05/18 01:35:43;;;;;;;10.63;6.40;;;16.30;99.90;;;;;;4968311;28;20920;-67
2022/05/18 01:38:12;;;;;;;5.70;5.20;;;16.30;99.90;;;;;;4969509;28;20211;-67
2022/05/18 01:40:59;;;;;;;6.17;5.67;;;16.30;99.90;;;;;;4967801;28;20443;-67
2022/05/18 01:43:53;;;;;;;6.20;5.60;;;16.20;99.90;;;;;;4969282;28;20459;-67
2022/05/18 01:46:20;;;;;;;7.10;6.40;;;16.30;99.90;;;;;;4968014;28;20450;-67
2022/05/18 01:48:49;;;;;;;7.30;6.60;;;16.30;99.90;;;;;;4964800;28;20462;-67
2022/05/18 01:51:26;;;;;;;7.50;5.93;;;16.30;99.90;;;;;;4962706;28;20464;-67
2022/05/18 01:53:51;;;;;;;7.00;6.30;;;16.30;99.90;;;;;;4970112;28;20518;-67
2022/05/18 01:56:17;;;;;;;10.03;5.93;;;16.30;99.90;;;;;;4969362;28;20559;-68
2022/05/18 01:58:42;;;;;;;10.63;6.50;;;16.20;99.90;;;;;;4969764;28;20194;-67
2022/05/18 02:01:08;;;;;;;6.40;5.80;;;16.20;99.90;;;;;;4970663;28;20192;-67
2022/05/18 02:03:33;;;;;;;7.47;6.30;;;16.20;99.90;;;;;;4969773;28;20543;-66
2022/05/18 02:05:59;;;;;;;7.53;6.63;;;16.20;99.90;;;;;;4968998;28;20336;-67
2022/05/18 02:08:25;;;;;;;6.93;6.23;;;16.10;99.90;;;;;;4968514;28;20538;-67
2022/05/18 02:10:50;;;;;;;6.83;5.50;;;16.10;99.90;;;;;;4971042;28;20188;-66
2022/05/18 02:13:17;;;;;;;6.10;5.60;;;16.10;99.90;;;;;;4970045;28;20287;-67
2022/05/18 02:15:43;;;;;;;6.80;6.17;;;16.10;99.90;;;;;;4969750;28;20207;-67
2022/05/18 02:18:09;;;;;;;6.87;6.20;;;16.10;99.90;;;;;;4970832;28;22541;-67
2022/05/18 02:20:35;;;;;;;7.10;6.37;;;16.00;99.90;;;;;;4969020;28;20184;-67
2022/05/18 02:23:01;;;;;;;8.77;6.23;;;16.00;99.90;;;;;;4967633;28;21031;-67
2022/05/18 02:25:27;;;;;;;9.30;5.70;;;15.90;99.90;;;;;;4967100;28;20214;-67
2022/05/18 02:27:55;;;;;;;7.33;5.40;;;15.90;99.90;;;;;;4965478;28;20435;-67
2022/05/18 02:30:21;;;;;;;9.50;5.93;;;16.00;99.90;;;;;;4968702;28;20493;-67
2022/05/18 02:32:46;;;;;;;7.03;6.20;;;16.00;99.90;;;;;;4969264;28;21178;-67
2022/05/18 02:35:12;;;;;;;7.87;6.50;;;16.00;99.90;;;;;;4971779;28;20502;-67
2022/05/18 02:37:38;;;;;;;6.90;5.93;;;16.00;99.90;;;;;;4971394;28;20231;-67
2022/05/18 02:40:06;;;;;;;7.33;6.23;;;15.90;99.90;;;;;;4970517;28;20216;-67
2022/05/18 02:42:31;;;;;;;7.13;6.43;;;15.90;99.90;;;;;;4968326;28;20216;-67
2022/05/18 02:44:57;;;;;;;11.00;7.33;;;15.90;99.90;;;;;;4968226;28;20798;-67
2022/05/18 02:47:23;;;;;;;8.90;5.83;;;15.80;99.90;;;;;;4970854;28;20223;-67
2022/05/18 02:49:48;;;;;;;7.47;6.70;;;15.80;99.90;;;;;;4970290;28;20256;-67
2022/05/18 02:52:14;;;;;;;5.90;5.40;;;15.80;99.90;;;;;;4968285;28;20471;-67
2022/05/18 02:57:24;;;;;;;7.57;6.90;;;15.70;99.90;;;;;;4968613;28;20748;-67
2022/05/18 02:59:50;;;;;;;7.13;6.43;;;15.60;99.90;;;;;;4965891;28;20534;-67
2022/05/18 03:02:15;;;;;;;6.60;5.97;;;15.60;99.90;;;;;;4967700;28;20212;-67
2022/05/18 03:04:41;;;;;;;7.10;6.50;;;15.50;99.90;;;;;;4969240;28;20568;-67
2022/05/18 03:07:06;;;;;;;6.37;5.87;;;15.50;99.90;;;;;;4968938;28;20183;-67
2022/05/18 03:09:32;;;;;;;6.70;5.63;;;15.50;99.90;;;;;;4968342;28;20183;-67
2022/05/18 03:11:58;;;;;;;8.40;6.47;;;15.50;99.90;;;;;;4968836;28;20263;-67
2022/05/18 03:14:24;;;;;;;6.80;6.17;;;15.40;99.90;;;;;;4971244;28;20570;-68
2022/05/18 03:16:51;;;;;;;5.70;5.20;;;15.40;99.90;;;;;;4968821;28;20177;-67
2022/05/18 03:19:17;;;;;;;9.10;5.90;;;15.40;99.90;;;;;;4970779;28;20817;-67
2022/05/18 03:24:27;;;;;;;6.70;6.20;;;15.30;99.90;;;;;;4966626;28;20255;-67
2022/05/18 03:26:52;;;;;;;6.27;5.77;;;15.30;99.90;;;;;;4968327;28;20447;-67
2022/05/18 03:29:18;;;;;;;8.87;6.50;;;15.20;99.90;;;;;;4968018;28;20223;-67
2022/05/18 03:31:44;;;;;;;5.90;5.30;;;15.20;99.90;;;;;;4969514;28;20187;-67
2022/05/18 03:34:10;;;;;;;7.67;6.00;;;15.20;99.90;;;;;;4968160;28;20212;-67
2022/05/18 03:36:36;;;;;;;6.33;5.80;;;15.30;99.90;;;;;;4968197;28;20431;-67
2022/05/18 03:39:03;;;;;;;5.43;4.93;;;15.30;99.90;;;;;;4967831;28;20227;-67
2022/05/18 03:41:28;;;;;;;9.40;6.40;;;15.30;99.90;;;;;;4967227;28;20467;-67
2022/05/18 03:43:54;;;;;;;8.40;5.50;;;15.30;99.90;;;;;;4969779;28;20995;-66
2022/05/18 03:46:20;;;;;;;6.80;6.00;;;15.30;99.90;;;;;;4968963;28;20215;-66
2022/05/18 03:48:46;;;;;;;6.57;6.00;;;15.20;99.90;;;;;;4970030;28;20184;-66
2022/05/18 03:51:13;;;;;;;7.07;6.47;;;15.30;99.90;;;;;;4969497;28;20446;-67
2022/05/18 03:53:39;;;;;;;7.13;6.07;;;15.30;99.90;;;;;;4973301;28;20510;-67
2022/05/18 03:56:06;;;;;;;7.47;6.87;;;15.20;99.90;;;;;;4972338;28;20471;-67
2022/05/18 03:58:31;;;;;;;6.90;6.30;;;15.20;99.90;;;;;;4971443;28;20439;-67
2022/05/18 04:01:00;;;;;;;8.17;7.37;;;15.20;99.90;;;;;;4971889;28;20987;-67
2022/05/18 04:03:27;;;;;;;6.43;5.90;;;15.20;99.90;;;;;;4973086;28;20212;-67
2022/05/18 04:05:53;;;;;;;7.63;6.63;;;15.20;99.90;;;;;;4969096;28;20965;-67
2022/05/18 04:08:19;;;;;;;7.30;5.83;;;15.30;99.90;;;;;;4972121;28;20435;-67
2022/05/18 04:10:45;;;;;;;5.90;5.30;;;15.30;99.90;;;;;;4973433;28;20982;-67
2022/05/18 04:13:16;;;;;;;5.90;5.33;;;15.40;99.90;;;;;;4971671;28;20187;-67
2022/05/18 04:15:42;;;;;;;7.17;6.60;;;15.50;99.90;;;;;;4970282;28;20459;-67
2022/05/18 04:18:08;;;;;;;6.23;5.63;;;15.60;99.90;;;;;;4969248;28;20808;-67
2022/05/18 04:20:33;;;;;;;6.70;6.10;;;15.60;99.90;;;;;;4966174;28;20275;-67
2022/05/18 04:22:59;;;;;;;7.13;6.43;;;15.60;99.90;;;;;;4971061;28;21100;-67
2022/05/18 04:25:26;;;;;;;6.20;5.70;;;15.70;99.90;;;;;;4973293;28;20286;-67
2022/05/18 04:27:53;;;;;;;6.77;6.17;;;15.70;99.90;;;;;;4971547;28;20596;-67
2022/05/18 04:30:21;;;;;;;7.33;6.27;;;15.80;99.90;;;;;;4971550;28;20431;-67
2022/05/18 04:32:47;;;;;;;8.40;7.20;;;15.90;99.90;;;;;;4973138;28;20454;-67
2022/05/18 04:35:16;;;;;;;15.53;12.07;;;15.90;99.90;;;;;;4970729;28;20467;-67
2022/05/18 04:37:41;;;;;;;9.00;8.07;;;16.00;99.90;;;;;;4972092;28;20184;-67
2022/05/18 04:40:08;;;;;;;10.33;9.23;;;16.20;99.90;;;;;;4972501;28;21007;-67
2022/05/18 04:42:34;;;;;;;8.63;6.80;;;16.20;99.90;;;;;;4970800;28;20212;-67
2022/05/18 04:44:59;;;;;;;6.70;6.23;;;16.30;99.90;;;;;;4972064;28;20473;-67
2022/05/18 04:47:25;;;;;;;7.90;6.83;;;16.40;99.90;;;;;;4971227;28;20443;-64
2022/05/18 04:49:52;;;;;;;6.33;5.73;;;16.50;99.90;;;;;;4971149;28;20193;-63
2022/05/18 04:52:18;;;;;;;7.17;6.10;;;16.60;99.90;;;;;;4967766;28;20435;-63
2022/05/18 04:54:44;;;;;;;7.70;7.10;;;16.70;99.90;;;;;;4970287;28;20554;-61
2022/05/18 04:57:10;;;;;;;7.13;5.87;;;16.80;99.90;;;;;;4970561;28;20550;-64
2022/05/18 04:59:36;;;;;;;7.73;6.40;;;17.10;99.90;;;;;;4970557;28;20192;-64
2022/05/18 05:02:02;;;;;;;6.03;5.63;;;17.20;99.90;;;;;;4970436;28;20275;-64
2022/05/18 05:04:28;;;;;;;9.50;6.57;;;17.40;99.90;;;;;;4974724;28;20542;-63
2022/05/18 05:06:54;;;;;;;6.87;6.27;;;17.50;99.90;;;;;;4970713;28;20851;-63
2022/05/18 05:09:22;;;;;;;6.17;5.77;;;17.70;99.90;;;;;;4966046;28;20519;-63
2022/05/18 05:11:48;;;;;;;6.83;6.23;;;17.90;99.90;;;;;;4970872;28;20184;-62
2022/05/18 05:14:13;;;;;;;8.13;6.70;;;18.00;99.90;;;;;;4966505;28;20463;-63
2022/05/18 05:16:39;;;;;;;8.03;6.90;;;18.20;99.90;;;;;;4975264;28;20454;-63
2022/05/18 05:19:05;;;;;;;8.37;6.63;;;18.40;99.90;;;;;;4968042;28;20681;-62
2022/05/18 05:21:30;;;;;;;6.23;5.70;;;18.60;99.90;;;;;;4963980;28;20169;-62
2022/05/18 05:23:56;;;;;;;7.93;7.10;;;18.70;99.90;;;;;;4971810;28;20581;-63
2022/05/18 05:26:22;;;;;;;7.60;6.90;;;18.80;99.90;;;;;;4970023;28;20673;-62
2022/05/18 05:28:47;;;;;;;6.47;5.63;;;18.90;99.90;;;;;;4969544;28;20275;-63
2022/05/18 05:31:13;;;;;;;5.80;4.53;;;19.10;99.90;;;;;;4967787;28;20179;-64
2022/05/18 05:33:40;;;;;;;9.23;5.90;;;19.30;99.90;;;;;;4972110;28;20192;-64
2022/05/18 05:36:07;;;;;;;6.50;6.00;;;19.40;99.90;;;;;;4972301;28;20215;-63
2022/05/18 05:38:33;;;;;;;7.33;5.83;;;19.50;99.90;;;;;;4969127;28;20538;-63
2022/05/18 05:41:02;;;;;;;5.77;5.20;;;19.70;99.90;;;;;;4968100;28;20522;-65
2022/05/18 05:43:31;;;;;;;6.30;5.60;;;19.80;99.90;;;;;;4965012;28;20220;-63
2022/05/18 05:46:04;;;;;;;5.37;4.97;;;19.90;99.90;;;;;;4968718;28;20864;-63
2022/05/18 05:48:32;;;;;;;6.47;5.90;;;20.10;99.90;;;;;;4960798;28;20957;-63
2022/05/18 05:50:59;;;;;;;6.40;5.87;;;20.10;99.90;;;;;;4968182;28;20451;-64
2022/05/18 05:53:24;;;;;;;9.13;5.17;;;20.10;99.90;;;;;;4970667;28;20443;-66
2022/05/18 05:55:51;;;;;;;7.90;6.67;;;20.20;99.90;;;;;;4967806;28;20483;-64
2022/05/18 05:58:17;;;;;;;6.37;5.77;;;20.30;99.90;;;;;;4969966;28;20650;-63
2022/05/18 06:00:43;;;;;;;5.43;5.00;;;20.40;99.90;;;;;;4969306;28;20432;-63
2022/05/18 06:03:09;;;;;;;7.50;5.47;;;20.20;99.90;;;;;;4966747;28;20471;-65
2022/05/18 06:05:34;;;;;;;7.17;5.63;;;20.20;99.90;;;;;;4969710;28;20204;-63
2022/05/18 06:08:00;;;;;;;6.23;4.70;;;20.30;99.90;;;;;;4968041;28;20203;-63
2022/05/18 06:10:25;;;;;;;6.63;5.73;;;20.50;99.90;;;;;;4966673;28;20617;-65
2022/05/18 06:12:51;;;;;;;4.87;4.40;;;20.80;99.90;;;;;;4971716;28;20243;-63
2022/05/18 06:15:17;;;;;;;8.13;5.53;;;21.10;99.90;;;;;;4969555;28;20556;-64
2022/05/18 06:17:43;;;;;;;5.10;4.53;;;21.10;99.90;;;;;;4968745;28;20196;-66
2022/05/18 06:20:09;;;;;;;6.93;5.40;;;21.00;99.90;;;;;;4967571;28;21889;-65
2022/05/18 06:22:34;;;;;;;5.10;4.60;;;21.00;99.90;;;;;;4973902;28;20262;-65
2022/05/18 06:25:00;;;;;;;6.00;5.40;;;21.30;99.90;;;;;;4970268;28;20996;-64
2022/05/18 06:27:26;;;;;;;5.20;4.80;;;21.50;99.90;;;;;;4969250;28;20181;-66
2022/05/18 06:29:51;;;;;;;5.03;4.57;;;21.50;99.90;;;;;;4969138;28;20191;-65
2022/05/18 06:32:18;;;;;;;6.20;4.90;;;21.50;99.90;;;;;;4956872;28;20195;-68
2022/05/18 06:34:48;;;;;;;6.00;5.40;;;21.40;99.90;;;;;;4948310;28;20215;-66
2022/05/18 06:37:14;;;;;;;4.70;4.30;;;21.10;99.90;;;;;;4970468;28;20475;-65
2022/05/18 06:39:40;;;;;;;5.67;5.13;;;21.00;99.90;;;;;;4964777;28;20980;-65
2022/05/18 06:42:06;;;;;;;5.67;5.17;;;21.10;99.90;;;;;;4966554;28;20435;-65
2022/05/18 06:44:32;;;;;;;4.57;4.17;;;21.40;99.90;;;;;;4971612;28;20468;-67
2022/05/18 06:47:01;;;;;;;5.70;5.20;;;21.70;99.90;;;;;;4969789;28;20531;-64
2022/05/18 06:49:27;;;;;;;5.13;4.73;;;21.90;99.90;;;;;;4969052;28;20721;-66
2022/05/18 06:51:56;;;;;;;4.67;4.27;;;21.90;99.90;;;;;;4967048;28;20442;-65
2022/05/18 06:54:22;;;;;;;4.97;4.57;;;22.10;99.90;;;;;;4969198;28;20463;-65
2022/05/18 06:56:47;;;;;;;5.60;4.83;;;22.40;99.90;;;;;;4968524;28;20454;-64
2022/05/18 06:59:14;;;;;;;7.03;5.60;;;22.70;99.90;;;;;;4970206;28;20436;-64
2022/05/18 07:01:41;;;;;;;4.73;4.20;;;23.00;99.90;;;;;;4959275;28;20180;-65
2022/05/18 07:04:10;;;;;;;5.50;4.70;;;23.20;99.90;;;;;;4964567;28;20482;-63
2022/05/18 07:06:42;;;;;;;5.20;4.70;;;23.40;99.90;;;;;;4967550;28;20439;-64
2022/05/18 07:09:10;;;;;;;6.23;4.93;;;23.70;99.90;;;;;;4966347;28;20431;-65
2022/05/18 07:11:36;;;;;;;5.33;4.83;;;23.80;99.90;;;;;;4966070;28;20493;-64
2022/05/18 07:14:05;;;;;;;5.27;4.57;;;23.40;99.90;;;;;;4956371;28;20941;-64
2022/05/18 07:16:31;;;;;;;4.70;4.30;;;23.70;99.90;;;;;;4962923;28;20179;-63
2022/05/18 07:18:57;;;;;;;5.93;5.43;;;24.00;99.90;;;;;;4966065;28;20445;-64
2022/05/18 07:21:25;;;;;;;5.70;3.87;;;24.00;99.90;;;;;;4964044;28;20833;-64
2022/05/18 07:23:51;;;;;;;7.50;4.90;;;24.00;99.90;;;;;;4963465;28;20531;-64
2022/05/18 07:26:18;;;;;;;6.70;4.70;;;24.20;99.90;;;;;;4967529;28;20836;-64
2022/05/18 07:28:44;;;;;;;9.20;5.23;;;24.60;98.80;;;;;;4969029;28;20443;-64
2022/05/18 07:31:10;;;;;;;9.30;4.80;;;24.60;98.70;;;;;;4974943;28;20439;-64
2022/05/18 07:33:36;;;;;;;4.57;4.17;;;24.20;99.20;;;;;;4966026;28;20900;-65
2022/05/18 07:36:02;;;;;;;5.27;4.87;;;24.30;99.30;;;;;;4973324;28;20452;-65
2022/05/18 07:38:30;;;;;;;7.00;4.83;;;24.50;98.00;;;;;;4973009;28;20710;-64
2022/05/18 07:40:56;;;;;;;6.70;4.47;;;24.70;97.50;;;;;;4971305;28;20513;-64
2022/05/18 07:43:22;;;;;;;7.57;5.57;;;25.00;96.70;;;;;;4970114;28;20490;-65
2022/05/18 07:45:50;;;;;;;5.63;4.20;;;25.10;96.60;;;;;;4973795;28;20972;-65
2022/05/18 07:48:17;;;;;;;13.13;4.37;;;25.30;96.40;;;;;;4963455;28;20454;-64
2022/05/18 07:50:42;;;;;;;4.80;4.40;;;25.40;96.70;;;;;;4975142;28;20492;-64
2022/05/18 07:53:08;;;;;;;4.87;4.47;;;25.70;96.20;;;;;;4969955;28;20956;-64
2022/05/18 07:55:34;;;;;;;6.03;3.87;;;25.80;96.20;;;;;;4972595;28;20603;-64
2022/05/18 07:58:09;;;;;;;6.97;5.60;;;26.10;95.90;;;;;;4971257;28;20452;-64
2022/05/18 08:00:34;;;;;;;5.57;5.00;;;26.30;94.10;;;;;;4972685;28;20518;-64
2022/05/18 08:03:00;;;;;;;4.57;4.13;;;26.10;94.10;;;;;;4970701;28;20951;-63
2022/05/18 08:05:28;;;;;;;5.43;4.47;;;25.70;94.90;;;;;;4970709;28;20201;-65
2022/05/18 08:07:53;;;;;;;6.13;4.10;;;26.10;94.00;;;;;;4970921;28;20222;-64
2022/05/18 08:15:49;;;;;;;5.03;4.50;;;25.80;92.60;;;;;;4968551;28;20458;-64
2022/05/18 08:18:17;;;;;;;5.60;4.53;;;26.20;92.80;;;;;;4964734;28;20435;-63
2022/05/18 08:20:44;;;;;;;9.47;4.83;;;26.60;91.50;;;;;;4972693;28;20461;-65
2022/05/18 08:23:10;;;;;;;5.80;4.63;;;26.70;91.60;;;;;;4970699;28;20824;-65
2022/05/18 08:25:35;;;;;;;8.60;4.27;;;27.00;91.60;;;;;;4969637;28;20466;-65
2022/05/18 08:28:02;;;;;;;5.67;5.10;;;27.10;91.00;;;;;;4966991;28;20185;-64
2022/05/18 08:30:31;;;;;;;5.43;4.93;;;27.20;91.00;;;;;;4967843;28;20208;-67
2022/05/18 08:33:01;;;;;;;7.47;5.20;;;27.50;89.10;;;;;;4968897;28;20501;-65
2022/05/18 08:35:29;;;;;;;5.63;5.13;;;27.40;90.20;;;;;;4970395;28;20507;-63
2022/05/18 08:37:55;;;;;;;6.03;5.53;;;27.60;88.20;;;;;;4965397;28;20522;-64
2022/05/18 08:40:29;;;;;;;5.13;4.47;;;27.60;87.10;;;;;;4965422;28;20447;-65
2022/05/18 08:43:03;;;;;;;5.20;4.53;;;27.80;86.30;;;;;;4963224;28;20636;-65
2022/05/18 08:45:39;;;;;;;4.90;4.60;;;28.00;86.10;;;;;;4968606;28;20462;-65
2022/05/18 08:48:13;;;;;;;5.23;4.77;;;28.30;84.30;;;;;;4969122;28;20442;-65
2022/05/18 08:50:40;;;;;;;5.20;4.70;;;28.10;84.60;;;;;;4966550;28;20985;-64
2022/05/18 08:53:28;;;;;;;5.13;4.17;;;27.60;82.40;;;;;;4959260;28;20443;-64
2022/05/18 08:55:53;;;;;;;5.37;4.87;;;27.30;81.60;;;;;;4963639;28;20487;-64
2022/05/18 08:58:28;;;;;;;5.30;4.43;;;27.10;81.30;;;;;;4968234;28;21019;-64
2022/05/18 09:01:12;;;;;;;4.83;4.43;;;27.10;82.50;;;;;;4967148;28;20577;-64
2022/05/18 09:03:39;;;;;;;5.50;4.50;;;27.40;82.00;;;;;;4958196;28;20516;-64
2022/05/18 09:06:36;;;;;;;4.63;4.27;;;27.80;82.50;;;;;;4967106;28;20459;-62
2022/05/18 09:11:59;;;;;;;6.10;4.97;;;28.40;81.30;;;;;;4963304;28;20819;-67
2022/05/18 09:14:30;;;;;;;5.33;3.90;;;28.80;82.30;;;;;;4968174;28;20995;-64
2022/05/18 09:17:23;;;;;;;8.43;4.63;;;29.30;80.80;;;;;;4968400;28;20896;-64
2022/05/18 09:19:48;;;;;;;5.03;4.20;;;29.40;76.80;;;;;;4961042;28;20877;-64
2022/05/18 09:22:24;;;;;;;7.37;5.00;;;29.50;77.10;;;;;;4959689;28;20440;-64
2022/05/18 09:25:02;;;;;;;10.23;4.90;;;29.60;76.30;;;;;;4968212;28;20757;-66
2022/05/18 09:27:53;;;;;;;4.90;4.33;;;29.30;73.80;;;;;;4970699;28;20438;-64
2022/05/18 09:30:45;;;;;;;4.30;3.90;;;28.60;77.90;;;;;;4969955;28;20471;-64
2022/05/18 09:33:19;;;;;;;4.00;3.70;;;29.00;76.10;;;;;;4963555;28;20521;-65
2022/05/18 09:36:12;;;;;;;4.60;4.23;;;29.70;73.80;;;;;;4970458;28;20544;-63
2022/05/18 09:39:08;;;;;;;4.47;4.07;;;30.40;71.50;;;;;;4964278;28;20491;-67
2022/05/18 09:41:52;;;;;;;3.70;3.40;;;30.50;67.50;;;;;;4964904;28;20439;-62
2022/05/18 09:44:33;;;;;;;4.07;3.77;;;30.70;63.80;;;;;;4976345;28;20525;-62
2022/05/18 09:47:00;;;;;;;3.63;3.30;;;31.20;64.00;;;;;;4973868;28;20917;-61
2022/05/18 09:49:40;;;;;;;3.40;3.03;;;31.10;62.40;;;;;;4972677;28;20443;-62
2022/05/18 09:52:06;;;;;;;3.40;3.20;;;30.90;58.60;;;;;;4966594;28;21027;-62
2022/05/18 09:54:34;;;;;;;3.23;2.93;;;31.00;59.90;;;;;;4972260;28;20451;-63
2022/05/18 09:57:08;;;;;;;3.97;3.20;;;32.00;57.90;;;;;;4973704;28;20188;-63
2022/05/18 09:59:38;;;;;;;3.17;2.87;;;31.90;55.90;;;;;;4973332;28;20419;-64
2022/05/18 10:07:50;;;;;;;3.60;3.30;;;33.60;54.20;;;;;;4973784;28;20410;-65
2022/05/18 10:10:21;;;;;;;5.67;3.47;;;33.30;53.80;;;;;;4973270;28;20416;-64
2022/05/18 10:12:53;;;;;;;6.20;4.07;;;33.80;53.10;;;;;;4968250;28;20502;-63
2022/05/18 10:15:39;;;;;;;3.70;3.40;;;33.60;52.70;;;;;;4973214;28;20439;-63
2022/05/18 10:18:23;;;;;;;4.43;4.03;;;33.50;52.90;;;;;;4973428;28;20412;-63
2022/05/18 10:21:07;;;;;;;4.07;3.77;;;33.60;52.20;;;;;;4973474;28;20423;-63
2022/05/18 10:23:51;;;;;;;4.40;3.87;;;33.90;52.80;;;;;;4977334;28;20458;-63
2022/05/18 10:26:28;;;;;;;4.30;4.00;;;34.50;50.80;;;;;;4992797;28;20469;-63
2022/05/18 10:28:59;;;;;;;4.30;4.00;;;34.60;49.70;;;;;;4992505;28;20982;-63
2022/05/18 10:31:32;;;;;;;4.03;3.73;;;34.90;49.70;;;;;;4992612;28;20411;-63
2022/05/18 10:34:23;;;;;;;5.37;4.73;;;35.40;48.80;;;;;;4968661;28;20527;-63
2022/05/18 10:36:55;;;;;;;3.73;3.47;;;34.90;48.40;;;;;;4965920;28;20423;-63
2022/05/18 10:39:37;;;;;;;4.47;4.10;;;35.40;48.30;;;;;;4969728;28;20514;-62
2022/05/18 10:42:20;;;;;;;5.03;4.63;;;35.70;48.30;;;;;;4970850;28;20519;-63
2022/05/18 10:44:46;;;;;;;4.40;4.00;;;36.00;47.00;;;;;;4964401;28;20493;-62
2022/05/18 10:47:18;;;;;;;4.63;4.23;;;36.30;46.70;;;;;;4950843;28;20880;-62
2022/05/18 10:49:44;;;;;;;4.10;3.70;;;36.50;47.00;;;;;;4950385;29;20580;-62
2022/05/18 10:52:33;;;;;;;4.70;4.17;;;36.50;46.40;;;;;;4950183;28;20423;-62
2022/05/18 10:55:06;;;;;;;4.40;4.10;;;36.80;45.60;;;;;;4986644;28;20476;-62
2022/05/18 10:57:36;;;;;;;3.20;2.93;;;37.30;45.10;;;;;;4989279;28;20453;-62
2022/05/18 11:00:15;;;;;;;4.87;4.00;;;37.00;44.40;;;;;;4977390;28;20442;-63
2022/05/18 11:03:17;;;;;;;3.77;3.47;;;37.90;43.30;;;;;;4972879;28;20557;-63
2022/05/18 11:05:47;;;;;;;4.30;4.00;;;38.10;42.70;;;;;;4993033;28;20438;-62
2022/05/18 11:08:16;;;;;;;5.10;3.57;;;37.30;42.50;;;;;;4993010;28;20892;-62
2022/05/18 11:11:09;;;;;;;4.73;4.20;;;37.30;42.10;;;;;;4989529;28;20537;-62
2022/05/18 11:13:46;;;;;;;3.63;3.40;;;37.30;41.80;;;;;;4965902;28;20542;-63
2022/05/18 11:16:22;;;;;;;5.00;3.50;;;38.20;41.10;;;;;;4973398;28;20435;-64
2022/05/18 11:19:13;;;;;;;4.13;3.83;;;39.60;40.60;;;;;;4973192;28;20419;-63
2022/05/18 11:21:51;;;;;;;3.53;3.33;;;39.30;39.90;;;;;;4971455;28;20415;-63
2022/05/18 11:24:19;;;;;;;3.53;3.33;;;39.30;39.30;;;;;;4968423;28;20466;-63
2022/05/18 11:27:14;;;;;;;3.50;3.30;;;39.10;38.90;;;;;;4973154;28;20767;-63
2022/05/18 11:29:49;;;;;;;4.80;4.30;;;38.90;39.70;;;;;;4975994;28;20447;-63
2022/05/18 11:32:31;;;;;;;4.20;3.80;;;39.70;40.00;;;;;;4983129;28;21231;-63
2022/05/18 11:35:14;;;;;;;3.33;3.03;;;41.10;43.00;;;;;;4992095;28;20446;-63
2022/05/18 11:38:03;;;;;;;3.90;3.60;;;40.90;42.10;;;;;;4992534;28;20499;-63
2022/05/18 11:40:37;;;;;;;4.43;4.13;;;39.40;41.10;;;;;;4992165;28;20421;-63
2022/05/18 11:43:30;;;;;;;4.10;3.77;;;38.80;41.20;;;;;;4976477;28;20466;-63
2022/05/18 11:46:07;;;;;;;3.47;3.17;;;39.70;41.50;;;;;;4973099;28;20454;-63
2022/05/18 11:48:47;;;;;;;3.40;3.20;;;40.50;39.60;;;;;;4972504;28;20412;-63
2022/05/18 11:51:47;;;;;;;3.80;3.43;;;41.20;40.70;;;;;;4969896;28;20514;-63
2022/05/18 11:54:27;;;;;;;5.63;3.73;;;43.20;49.00;;;;;;4961138;28;20458;-63
2022/05/18 11:57:04;;;;;;;3.70;3.50;;;45.10;47.60;;;;;;4970587;28;20450;-63
2022/05/18 11:59:45;;;;;;;4.13;3.83;;;45.90;45.60;;;;;;4973265;28;20967;-63
2022/05/18 12:02:32;;;;;;;4.17;3.77;;;45.30;46.20;;;;;;4962113;28;20447;-63
2022/05/18 12:05:27;;;;;;;3.43;3.07;;;44.90;45.80;;;;;;4970429;28;20471;-62
2022/05/18 12:08:27;;;;;;;3.47;3.10;;;42.80;45.80;;;;;;4972499;28;20815;-62
2022/05/18 12:11:23;;;;;;;3.60;3.30;;;41.60;46.30;;;;;;4973652;28;20432;-63
2022/05/18 12:14:24;;;;;;;3.53;3.33;;;41.90;47.20;;;;;;4970529;28;20431;-63
2022/05/18 12:17:12;;;;;;;3.50;3.20;;;42.00;47.30;;;;;;4972963;28;20439;-63
2022/05/18 12:19:37;;;;;;;3.53;3.23;;;43.40;46.60;;;;;;4968861;28;20544;-63
2022/05/18 12:22:13;;;;;;;3.53;3.33;;;43.80;46.00;;;;;;4968757;28;20537;-63
2022/05/18 12:24:41;;;;;;;3.73;3.43;;;43.70;45.70;;;;;;4968259;28;20203;-63
2022/05/18 12:27:10;;;;;;;4.17;3.87;;;42.30;45.30;;;;;;4972955;28;20436;-63
2022/05/18 12:29:36;;;;;;;3.00;2.77;;;42.70;45.90;;;;;;4972446;28;20790;-63
2022/05/18 12:32:04;;;;;;;3.20;2.90;;;42.40;45.60;;;;;;4966323;28;20443;-62
2022/05/18 12:34:35;;;;;;;4.30;4.00;;;43.70;45.10;;;;;;4971245;28;20897;-63
2022/05/18 12:37:15;;;;;;;3.13;2.93;;;43.20;44.40;;;;;;4970844;28;20474;-63
2022/05/18 12:39:49;;;;;;;4.93;3.60;;;41.50;45.00;;;;;;4972944;28;20431;-63
2022/05/18 12:42:21;;;;;;;3.73;3.43;;;41.80;45.70;;;;;;4965643;28;21437;-63
2022/05/18 12:44:54;;;;;;;3.27;3.07;;;42.80;44.90;;;;;;4975438;28;20502;-63
2022/05/18 12:47:43;;;;;;;3.60;3.30;;;40.80;45.00;;;;;;4966597;28;20446;-63
2022/05/18 12:50:17;;;;;;;3.60;3.30;;;40.60;45.60;;;;;;4971554;28;21024;-63
2022/05/18 12:53:12;;;;;;;5.07;2.90;;;39.00;46.70;;;;;;4968815;28;20474;-63
2022/05/18 12:55:42;;;;;;;3.43;3.13;;;40.80;46.10;;;;;;4959501;28;20490;-63
2022/05/18 12:58:11;;;;;;;3.50;3.20;;;41.90;45.90;;;;;;4971949;28;20820;-63
2022/05/18 13:00:50;;;;;;;7.13;3.20;;;41.40;45.50;;;;;;4971385;28;20520;-63
2022/05/18 13:03:15;;;;;;;3.57;3.27;;;41.90;45.10;;;;;;4972823;28;20471;-63
2022/05/18 13:05:47;;;;;;;3.53;3.23;;;41.50;45.00;;;;;;4972034;28;20474;-63
2022/05/18 13:08:16;;;;;;;3.23;3.00;;;41.10;45.30;;;;;;4969980;28;20187;-63
2022/05/18 13:11:07;;;;;;;4.70;3.40;;;41.10;45.50;;;;;;4972870;28;20439;-63
2022/05/18 13:14:00;;;;;;;3.40;3.13;;;41.30;45.60;;;;;;4967411;28;20448;-63
2022/05/18 13:16:38;;;;;;;2.87;2.77;;;41.10;45.10;;;;;;4970712;28;20447;-64
2022/05/18 13:19:28;;;;;;;3.50;2.77;;;41.50;45.30;;;;;;4973273;28;20873;-63
2022/05/18 13:22:05;;;;;;;5.77;3.37;;;41.40;44.90;;;;;;4956005;28;20443;-63
2022/05/18 13:24:49;;;;;;;3.97;3.60;;;40.60;45.00;;;;;;4972401;28;21111;-64